TimeMST,TemperatureF,Dew PointF,Humidity,Sea Level PressureIn,VisibilityMPH,Wind Direction,Wind SpeedMPH,Gust SpeedMPH,PrecipitationIn,Events,Conditions,WindDirDegrees,DateUTC
12:51 AM,30.0,1.0,29,30.00,10.0,ENE,3.5,-,N/A,,Clear,60,2012-12-11 07:51:00
1:51 AM,30.0,-2.0,25,29.99,10.0,North,3.5,-,N/A,,Clear,360,2012-12-11 08:51:00
2:51 AM,30.0,-2.9,24,29.99,10.0,Calm,Calm,-,N/A,,Clear,0,2012-12-11 09:51:00
3:51 AM,27.0,-2.9,27,30.00,10.0,NE,5.8,-,N/A,,Clear,40,2012-12-11 10:51:00
4:51 AM,25.0,-4.0,28,30.02,10.0,NNE,4.6,-,N/A,,Clear,30,2012-12-11 11:51:00
5:51 AM,21.2,-5.8,30,30.06,10.0,Calm,Calm,-,N/A,,Partly Cloudy,0,2012-12-11 12:51:00
6:51 AM,27.0,-2.0,29,30.06,10.0,SSE,3.5,-,N/A,,Partly Cloudy,160,2012-12-11 13:51:00
7:51 AM,27.0,-2.0,29,30.10,10.0,ENE,4.6,-,N/A,,Partly Cloudy,60,2012-12-11 14:51:00
8:51 AM,36.0,-0.0,22,30.10,10.0,NE,3.5,-,N/A,,Partly Cloudy,50,2012-12-11 15:51:00
9:51 AM,42.1,-0.9,17,30.10,10.0,Calm,Calm,-,N/A,,Clear,0,2012-12-11 16:51:00
10:51 AM,46.4,3.2,17,30.14,10.0,NNE,5.8,-,N/A,,Clear,30,2012-12-11 17:51:00
11:51 AM,46.9,6.1,19,30.08,10.0,Calm,Calm,-,N/A,,Clear,0,2012-12-11 18:51:00
12:51 PM,50.0,6.1,17,30.06,10.0,Calm,Calm,-,N/A,,Clear,0,2012-12-11 19:51:00
1:51 PM,51.8,5.0,15,30.07,10.0,Variable,3.5,-,N/A,,Clear,0,2012-12-11 20:51:00
2:51 PM,51.1,5.0,15,30.00,10.0,Calm,Calm,-,N/A,,Clear,0,2012-12-11 21:51:00
3:51 PM,53.6,3.2,13,30.06,10.0,Calm,Calm,-,N/A,,Clear,0,2012-12-11 22:51:00
4:51 PM,51.1,3.9,15,30.04,10.0,NNE,4.6,-,N/A,,Clear,20,2012-12-11 23:51:00
5:51 PM,46.9,5.0,18,30.06,10.0,NE,5.8,-,N/A,,Clear,50,2012-12-12 00:51:00
6:51 PM,44.1,3.9,19,30.08,10.0,NE,4.6,-,N/A,,Clear,40,2012-12-12 01:51:00
7:51 PM,39.9,3.9,22,30.10,10.0,Calm,Calm,-,N/A,,Clear,0,2012-12-12 02:51:00
8:51 PM,35.6,1.4,24,30.11,10.0,ENE,4.6,-,N/A,,Clear,60,2012-12-12 03:51:00
9:51 PM,37.9,5.0,25,30.09,10.0,Calm,Calm,-,N/A,,Clear,0,2012-12-12 04:51:00
10:51 PM,30.9,1.0,28,30.09,10.0,ESE,5.8,-,N/A,,Clear,110,2012-12-12 05:51:00
11:51 PM,36.0,6.1,29,30.08,10.0,SSE,4.6,-,N/A,,Clear,150,2012-12-12 06:51:00